createdAt,value
2023-10-11T00:01:31.911Z,12.80
2023-10-11T00:04:03.282Z,12.70
2023-10-11T00:06:27.830Z,12.60
2023-10-11T00:08:56.226Z,12.60
2023-10-11T00:11:23.783Z,12.60
2023-10-11T00:13:51.361Z,12.50
2023-10-11T00:16:18.970Z,12.50
2023-10-11T00:18:46.667Z,12.50
2023-10-11T00:21:17.712Z,12.40
2023-10-11T00:23:47.108Z,12.70
2023-10-11T00:26:17.403Z,12.60
2023-10-11T00:28:45.166Z,12.50
2023-10-11T00:31:15.564Z,12.50
2023-10-11T00:33:43.219Z,12.70
2023-10-11T00:36:10.740Z,12.60
2023-10-11T00:38:38.341Z,12.50
2023-10-11T00:41:08.695Z,12.70
2023-10-11T00:43:39.183Z,12.90
2023-10-11T00:46:10.580Z,12.80
2023-10-11T00:48:38.141Z,12.80
2023-10-11T00:51:05.798Z,12.70
2023-10-11T00:53:33.302Z,12.50
2023-10-11T00:56:00.885Z,12.40
2023-10-11T00:58:28.458Z,12.30
2023-10-11T01:00:56.078Z,12.30
2023-10-11T01:03:23.731Z,12.20
2023-10-11T01:05:51.280Z,12.40
2023-10-11T01:08:18.843Z,12.30
2023-10-11T01:10:46.423Z,12.20
2023-10-11T01:13:14.010Z,12.40
2023-10-11T01:15:41.627Z,12.30
2023-10-11T01:18:10.072Z,12.10
2023-10-11T01:20:37.618Z,12.10
2023-10-11T01:23:05.973Z,11.90
2023-10-11T01:25:33.566Z,11.90
2023-10-11T01:28:01.150Z,11.80
2023-10-11T01:30:29.529Z,12.00
2023-10-11T01:32:57.927Z,11.90
2023-10-11T01:35:25.463Z,11.90
2023-10-11T01:37:53.860Z,11.70
2023-10-11T01:40:22.186Z,11.70
2023-10-11T01:42:49.783Z,11.70
2023-10-11T01:45:18.199Z,11.80
2023-10-11T01:47:48.793Z,11.80
2023-10-11T01:50:16.310Z,11.80
2023-10-11T01:52:43.967Z,11.70
2023-10-11T01:55:12.259Z,11.60
2023-10-11T01:57:39.876Z,11.60
2023-10-11T02:00:07.653Z,11.50
2023-10-11T02:02:35.216Z,11.80
2023-10-11T02:05:02.841Z,11.70
2023-10-11T02:07:30.440Z,11.70
2023-10-11T02:09:58.049Z,11.60
2023-10-11T02:12:25.606Z,11.50
2023-10-11T02:14:53.962Z,11.50
2023-10-11T02:17:21.582Z,11.40
2023-10-11T02:19:49.900Z,11.40
2023-10-11T02:22:17.506Z,11.30
2023-10-11T02:24:45.109Z,11.30
2023-10-11T02:27:12.751Z,11.30
2023-10-11T02:29:40.303Z,11.20
2023-10-11T02:32:07.868Z,11.20
2023-10-11T02:34:35.446Z,11.10
2023-10-11T02:37:03.092Z,11.10
2023-10-11T02:39:34.488Z,11.10
2023-10-11T02:42:01.153Z,11.30
2023-10-11T02:44:28.781Z,11.30
2023-10-11T02:46:56.319Z,11.20
2023-10-11T02:49:23.894Z,11.20
2023-10-11T02:51:54.379Z,11.10
2023-10-11T02:54:22.496Z,11.00
2023-10-11T02:56:50.139Z,11.00
2023-10-11T02:59:20.963Z,11.30
2023-10-11T03:01:48.532Z,11.30
2023-10-11T03:04:16.155Z,11.20
2023-10-11T03:06:43.756Z,11.20
2023-10-11T03:09:11.347Z,11.10
2023-10-11T03:11:38.903Z,11.00
2023-10-11T03:14:07.293Z,10.90
2023-10-11T03:16:35.639Z,10.90
2023-10-11T03:19:03.221Z,10.90
2023-10-11T03:21:30.813Z,10.80
2023-10-11T03:23:58.405Z,10.80
2023-10-11T03:26:31.869Z,10.70
2023-10-11T03:28:59.504Z,10.70
2023-10-11T03:31:30.334Z,10.70
2023-10-11T03:33:57.883Z,10.70
2023-10-11T03:36:37.180Z,10.60
2023-10-11T03:39:10.904Z,10.60
2023-10-11T03:41:38.430Z,10.50
2023-10-11T03:44:06.086Z,10.50
2023-10-11T03:46:33.741Z,10.50
2023-10-11T03:49:04.311Z,10.50
2023-10-11T03:51:31.883Z,10.40
2023-10-11T03:53:59.537Z,10.50
2023-10-11T03:56:27.088Z,10.50
2023-10-11T03:58:54.663Z,10.50
2023-10-11T04:01:25.765Z,10.50
2023-10-11T04:03:53.278Z,10.50
2023-10-11T04:06:23.186Z,10.70
2023-10-11T04:08:57.465Z,10.70
2023-10-11T04:11:30.934Z,10.60
2023-10-11T04:13:58.516Z,10.50
2023-10-11T04:16:26.156Z,10.50
2023-10-11T04:18:53.867Z,10.50
2023-10-11T04:21:39.256Z,10.50
2023-10-11T04:24:06.890Z,10.50
2023-10-11T04:26:35.247Z,10.50
2023-10-11T04:29:09.228Z,10.40
2023-10-11T04:31:37.614Z,10.40
2023-10-11T04:34:08.846Z,10.40
2023-10-11T04:36:37.217Z,10.30
2023-10-11T04:39:05.601Z,10.30
2023-10-11T04:41:33.165Z,10.30
2023-10-11T04:44:01.532Z,10.50
2023-10-11T04:46:29.878Z,10.50
2023-10-11T04:48:57.572Z,10.40
2023-10-11T04:51:25.300Z,10.40
2023-10-11T04:53:52.921Z,10.30
2023-10-11T04:56:42.147Z,10.70
2023-10-11T04:59:09.725Z,10.70
2023-10-11T05:01:49.614Z,10.70
2023-10-11T05:04:17.411Z,10.70
2023-10-11T05:06:44.853Z,10.60
2023-10-11T05:09:19.290Z,10.60
2023-10-11T05:11:46.702Z,10.60
2023-10-11T05:14:32.821Z,10.50
2023-10-11T05:17:00.431Z,10.40
2023-10-11T05:19:28.028Z,10.60
2023-10-11T05:22:03.992Z,11.00
2023-10-11T05:24:42.313Z,11.00
2023-10-11T05:27:12.639Z,10.80
2023-10-11T05:29:40.205Z,10.70
2023-10-11T05:32:22.606Z,10.50
2023-10-11T05:34:52.993Z,10.40
2023-10-11T05:37:38.433Z,10.30
2023-10-11T05:40:24.077Z,10.20
2023-10-11T05:43:10.239Z,10.10
2023-10-11T05:45:57.010Z,10.40
2023-10-11T05:48:24.721Z,10.30
2023-10-11T05:50:52.271Z,10.20
2023-10-11T05:53:19.812Z,10.20
2023-10-11T05:55:47.417Z,10.20
2023-10-11T05:58:15.017Z,10.20
2023-10-11T06:00:42.630Z,10.40
2023-10-11T06:03:11.061Z,10.40
2023-10-11T06:05:38.580Z,10.40
2023-10-11T06:08:06.230Z,10.60
2023-10-11T06:10:33.861Z,10.50
2023-10-11T06:13:01.431Z,10.50
2023-10-11T06:15:29.822Z,10.60
2023-10-11T06:17:57.457Z,10.60
2023-10-11T06:20:25.064Z,10.50
2023-10-11T06:22:52.568Z,10.50
2023-10-11T06:25:28.062Z,10.40
2023-10-11T06:27:55.653Z,10.40
2023-10-11T06:30:23.346Z,10.30
2023-10-11T06:32:53.742Z,10.30
2023-10-11T06:35:27.169Z,10.20
2023-10-11T06:37:54.735Z,10.20
2023-10-11T06:40:23.095Z,10.40
2023-10-11T06:42:50.749Z,10.40
2023-10-11T06:45:18.438Z,10.40
2023-10-11T06:47:45.871Z,10.60
2023-10-11T06:50:13.560Z,10.60
2023-10-11T06:52:46.925Z,10.60
2023-10-11T06:55:14.524Z,10.50
2023-10-11T06:57:42.881Z,10.70
2023-10-11T07:00:14.291Z,10.70
2023-10-11T07:02:41.860Z,10.70
2023-10-11T07:05:09.455Z,10.70
2023-10-11T07:07:37.061Z,10.70
2023-10-11T07:10:04.629Z,10.70
2023-10-11T07:12:32.303Z,10.70
2023-10-11T07:15:02.521Z,10.60
2023-10-11T07:17:30.936Z,10.70
2023-10-11T07:19:59.205Z,10.70
2023-10-11T07:22:27.818Z,10.70
2023-10-11T07:24:58.838Z,10.70
2023-10-11T07:27:29.162Z,10.70
2023-10-11T07:29:57.039Z,10.80
2023-10-11T07:32:24.612Z,10.80
2023-10-11T07:34:52.086Z,10.80
2023-10-11T07:37:19.721Z,10.80
2023-10-11T07:39:49.610Z,10.80
2023-10-11T07:42:20.605Z,10.90
2023-10-11T07:44:53.709Z,11.00
2023-10-11T07:47:21.243Z,11.00
2023-10-11T07:49:48.863Z,11.10
2023-10-11T07:52:16.485Z,11.20
2023-10-11T07:54:44.068Z,11.30
2023-10-11T07:57:14.796Z,11.60
2023-10-11T07:59:42.169Z,11.70
2023-10-11T08:02:09.798Z,12.10
2023-10-11T08:04:37.438Z,12.10
2023-10-11T08:07:07.298Z,12.20
2023-10-11T08:09:48.711Z,12.20
2023-10-11T08:12:17.771Z,12.30
2023-10-11T08:14:48.316Z,12.40
2023-10-11T08:17:18.237Z,12.50
2023-10-11T08:19:46.614Z,12.70
2023-10-11T08:22:17.745Z,12.80
2023-10-11T08:24:48.120Z,12.80
2023-10-11T08:27:15.889Z,13.00
2023-10-11T08:29:57.280Z,13.10
2023-10-11T08:32:14.618Z,13.30
2023-10-11T08:34:45.083Z,13.30
2023-10-11T08:37:16.421Z,13.60
2023-10-11T08:39:47.452Z,13.70
2023-10-11T08:42:18.849Z,13.80
2023-10-11T08:44:49.212Z,13.80
2023-10-11T08:47:16.780Z,13.90
2023-10-11T08:49:44.394Z,14.30
2023-10-11T08:52:11.986Z,14.70
2023-10-11T08:54:39.679Z,14.80
2023-10-11T08:57:07.234Z,14.80
2023-10-11T08:59:34.838Z,14.90
2023-10-11T09:02:02.406Z,15.00
2023-10-11T09:04:31.884Z,15.10
2023-10-11T09:06:57.634Z,15.20
2023-10-11T09:09:42.959Z,15.30
2023-10-11T09:12:26.299Z,15.60
2023-10-11T09:14:59.915Z,15.50
2023-10-11T09:17:27.424Z,15.70
2023-10-11T09:19:55.078Z,15.90
2023-10-11T09:22:22.670Z,16.00
2023-10-11T09:24:50.297Z,16.10
2023-10-11T09:27:17.972Z,16.30
2023-10-11T09:29:48.631Z,16.50
2023-10-11T09:32:16.213Z,16.70
2023-10-11T09:34:43.918Z,17.00
2023-10-11T09:37:11.439Z,17.10
2023-10-11T09:39:39.012Z,17.20
2023-10-11T09:42:06.687Z,17.30
2023-10-11T09:44:37.953Z,17.60
2023-10-11T09:47:07.689Z,17.60
2023-10-11T09:49:34.859Z,17.80
2023-10-11T09:52:00.792Z,17.90
2023-10-11T09:54:28.409Z,18.30
2023-10-11T09:56:58.978Z,18.50
2023-10-11T09:59:33.245Z,19.10
2023-10-11T10:02:07.073Z,19.20
2023-10-11T10:04:53.800Z,19.30
2023-10-11T10:07:27.492Z,19.30
2023-10-11T10:09:58.703Z,19.50
2023-10-11T10:12:26.363Z,19.50
2023-10-11T10:15:04.463Z,19.70
2023-10-11T10:17:35.901Z,20.10
2023-10-11T10:20:21.859Z,20.20
2023-10-11T10:22:52.270Z,20.30
2023-10-11T10:25:22.543Z,20.40
2023-10-11T10:27:50.036Z,20.50
2023-10-11T10:30:18.449Z,20.70
2023-10-11T10:33:16.781Z,20.80
2023-10-11T10:35:44.383Z,20.90
2023-10-11T10:38:11.968Z,21.00
2023-10-11T10:40:41.750Z,21.10
2023-10-11T10:43:15.697Z,21.30
2023-10-11T10:45:43.972Z,21.70
2023-10-11T10:48:17.371Z,21.70
2023-10-11T10:50:50.379Z,21.80
2023-10-11T10:53:17.951Z,22.10
2023-10-11T10:55:46.434Z,22.60
2023-10-11T10:58:17.662Z,22.60
2023-10-11T11:00:46.497Z,22.50
2023-10-11T11:03:22.607Z,22.70
2023-10-11T11:05:59.157Z,22.60
2023-10-11T11:08:26.717Z,22.70
2023-10-11T11:11:12.194Z,22.70
2023-10-11T11:13:39.779Z,22.80
2023-10-11T11:16:08.104Z,23.30
2023-10-11T11:18:35.861Z,23.30
2023-10-11T11:21:04.096Z,23.30
2023-10-11T11:23:31.633Z,23.30
2023-10-11T11:25:59.722Z,23.30
2023-10-11T11:28:26.882Z,23.40
2023-10-11T11:30:57.129Z,23.40
2023-10-11T11:33:37.499Z,23.50
2023-10-11T11:36:05.005Z,23.50
2023-10-11T11:38:32.634Z,23.50
2023-10-11T11:41:00.968Z,23.60
2023-10-11T11:43:34.403Z,23.70
2023-10-11T11:46:01.967Z,23.70
2023-10-11T11:48:29.669Z,23.70
2023-10-11T11:50:57.386Z,23.80
2023-10-11T11:53:24.774Z,23.80
2023-10-11T11:55:52.401Z,23.90
2023-10-11T11:58:19.969Z,24.00
2023-10-11T12:00:47.722Z,24.00
2023-10-11T12:03:15.297Z,24.10
2023-10-11T12:05:42.766Z,24.10
2023-10-11T12:08:10.370Z,24.20
2023-10-11T12:10:37.933Z,24.20
2023-10-11T12:13:08.362Z,24.30
2023-10-11T12:15:38.680Z,24.30
2023-10-11T12:18:06.605Z,24.40
2023-10-11T12:20:36.796Z,24.40
2023-10-11T12:23:09.648Z,24.40
2023-10-11T12:25:39.958Z,24.40
2023-10-11T12:28:07.533Z,24.50
2023-10-11T12:30:36.019Z,24.50
2023-10-11T12:33:09.247Z,24.40
2023-10-11T12:35:42.354Z,24.50
2023-10-11T12:38:10.543Z,24.70
2023-10-11T12:40:38.116Z,24.70
2023-10-11T12:43:06.500Z,24.90
2023-10-11T12:45:46.430Z,24.90
2023-10-11T12:48:14.148Z,24.90
2023-10-11T12:50:41.663Z,24.90
2023-10-11T12:53:09.226Z,25.00
2023-10-11T12:55:40.146Z,25.10
2023-10-11T12:58:09.917Z,25.00
2023-10-11T13:00:38.259Z,25.10
2023-10-11T13:03:03.789Z,25.10
2023-10-11T13:05:31.249Z,25.20
2023-10-11T13:08:01.092Z,25.20
2023-10-11T13:10:28.660Z,25.30
2023-10-11T13:12:56.244Z,25.30
2023-10-11T13:15:24.088Z,25.30
2023-10-11T13:17:51.518Z,25.50
2023-10-11T13:20:21.646Z,25.60
2023-10-11T13:22:49.234Z,25.70
2023-10-11T13:27:55.625Z,25.80
2023-10-11T13:30:26.056Z,25.80
2023-10-11T13:32:53.687Z,25.70
2023-10-11T13:35:21.963Z,25.60
2023-10-11T13:37:52.241Z,25.60
2023-10-11T13:40:21.478Z,25.50
2023-10-11T13:42:48.249Z,25.30
2023-10-11T13:45:15.892Z,25.30
2023-10-11T13:47:44.263Z,25.40
2023-10-11T13:50:11.794Z,25.40
2023-10-11T13:52:39.366Z,25.30
2023-10-11T13:55:09.559Z,25.30
2023-10-11T13:57:37.340Z,25.30
2023-10-11T14:00:05.152Z,25.30
2023-10-11T14:02:36.001Z,25.30
2023-10-11T14:05:03.358Z,25.30
2023-10-11T14:07:33.905Z,25.30
2023-10-11T14:10:02.233Z,25.60
2023-10-11T14:12:35.610Z,25.60
2023-10-11T14:15:03.226Z,25.60
2023-10-11T14:17:30.797Z,25.60
2023-10-11T14:19:58.354Z,25.70
2023-10-11T14:22:26.742Z,25.70
2023-10-11T14:24:54.340Z,25.70
2023-10-11T14:27:21.973Z,25.70
2023-10-11T14:29:49.607Z,25.70
2023-10-11T14:32:17.188Z,25.70
2023-10-11T14:34:44.740Z,25.70
2023-10-11T14:37:14.360Z,25.60
2023-10-11T14:39:39.991Z,25.60
2023-10-11T14:42:07.543Z,25.60
2023-10-11T14:44:35.107Z,25.70
2023-10-11T14:47:02.753Z,25.70
2023-10-11T14:49:30.336Z,25.60
2023-10-11T14:51:57.898Z,25.50
2023-10-11T14:54:25.512Z,25.50
2023-10-11T14:56:53.086Z,25.40
2023-10-11T14:59:20.704Z,25.40
2023-10-11T15:01:48.337Z,25.30
2023-10-11T15:04:16.144Z,25.30
2023-10-11T15:06:49.055Z,25.30
2023-10-11T15:09:16.657Z,25.30
2023-10-11T15:11:44.253Z,25.30
2023-10-11T15:14:11.818Z,25.20
2023-10-11T15:16:40.201Z,25.20
2023-10-11T15:19:07.852Z,25.10
2023-10-11T15:21:35.429Z,25.10
2023-10-11T15:24:06.330Z,25.20
2023-10-11T15:26:33.943Z,25.20
2023-10-11T15:29:01.530Z,25.10
2023-10-11T15:31:29.163Z,25.10
2023-10-11T15:33:56.794Z,25.00
2023-10-11T15:36:24.340Z,25.00
2023-10-11T15:38:51.897Z,24.90
2023-10-11T15:41:19.509Z,24.90
2023-10-11T15:43:47.099Z,24.80
2023-10-11T15:46:14.690Z,24.80
2023-10-11T15:48:42.367Z,24.70
2023-10-11T15:51:12.371Z,24.90
2023-10-11T15:53:39.964Z,25.00
2023-10-11T15:56:07.593Z,24.90
2023-10-11T15:58:35.980Z,24.70
2023-10-11T16:01:04.374Z,24.80
2023-10-11T16:03:32.225Z,24.80
2023-10-11T16:05:59.689Z,24.70
2023-10-11T16:08:27.273Z,24.80
2023-10-11T16:11:06.415Z,24.70
2023-10-11T16:13:34.022Z,24.50
2023-10-11T16:16:01.573Z,24.40
2023-10-11T16:18:29.243Z,24.20
2023-10-11T16:20:56.771Z,24.10
2023-10-11T16:23:27.270Z,24.00
2023-10-11T16:25:54.965Z,23.80
2023-10-11T16:28:22.509Z,23.90
2023-10-11T16:30:50.116Z,23.80
2023-10-11T16:33:17.780Z,23.60
2023-10-11T16:35:45.279Z,23.50
2023-10-11T16:38:12.972Z,23.40
2023-10-11T16:40:40.583Z,23.30
2023-10-11T16:43:08.139Z,23.20
2023-10-11T16:45:35.764Z,23.00
2023-10-11T16:48:03.341Z,22.90
2023-10-11T16:50:30.931Z,22.90
2023-10-11T16:52:58.515Z,22.80
2023-10-11T16:55:26.079Z,22.70
2023-10-11T16:57:53.690Z,22.60
2023-10-11T17:00:21.294Z,22.50
2023-10-11T17:02:48.902Z,22.50
2023-10-11T17:05:16.449Z,22.60
2023-10-11T17:07:44.829Z,22.40
2023-10-11T17:10:13.169Z,22.20
2023-10-11T17:12:43.650Z,22.20
2023-10-11T17:15:12.090Z,22.00
2023-10-11T17:17:39.704Z,22.00
2023-10-11T17:20:07.435Z,21.90
2023-10-11T17:22:35.786Z,21.70
2023-10-11T17:25:03.563Z,21.70
2023-10-11T17:27:31.797Z,21.50
2023-10-11T17:29:59.355Z,21.50
2023-10-11T17:32:26.940Z,21.50
2023-10-11T17:34:54.616Z,21.40
2023-10-11T17:37:22.276Z,21.40
2023-10-11T17:39:50.587Z,21.20
2023-10-11T17:42:18.164Z,21.20
2023-10-11T17:44:46.526Z,21.10
2023-10-11T17:47:14.166Z,21.00
2023-10-11T17:49:41.752Z,21.30
2023-10-11T17:52:09.341Z,21.40
2023-10-11T17:54:36.999Z,21.40
2023-10-11T17:57:05.315Z,21.10
2023-10-11T17:59:32.893Z,21.10
2023-10-11T18:02:01.272Z,20.90
2023-10-11T18:04:29.735Z,20.80
2023-10-11T18:06:57.188Z,20.70
2023-10-11T18:09:24.845Z,20.70
2023-10-11T18:11:52.511Z,20.50
2023-10-11T18:14:20.498Z,20.40
2023-10-11T18:16:48.706Z,20.50
2023-10-11T18:19:19.628Z,20.40
2023-10-11T18:21:43.869Z,20.40
2023-10-11T18:24:11.509Z,20.20
2023-10-11T18:26:39.049Z,20.10
2023-10-11T18:29:06.637Z,20.00
2023-10-11T18:31:34.375Z,20.00
2023-10-11T18:34:01.879Z,19.90
2023-10-11T18:36:29.511Z,19.80
2023-10-11T18:38:57.846Z,20.00
2023-10-11T18:41:26.196Z,19.90
2023-10-11T18:43:53.847Z,19.90
2023-10-11T18:46:21.448Z,19.80
2023-10-11T18:48:49.081Z,19.80
2023-10-11T18:51:16.745Z,19.70
2023-10-11T18:53:47.106Z,19.60
2023-10-11T18:56:14.717Z,19.60
2023-10-11T18:58:42.284Z,19.60
2023-10-11T19:01:09.890Z,19.50
2023-10-11T19:03:37.604Z,19.40
2023-10-11T19:06:14.184Z,19.40
2023-10-11T19:08:41.659Z,19.40
2023-10-11T19:11:09.209Z,19.30
2023-10-11T19:13:37.575Z,19.30
2023-10-11T19:16:21.071Z,19.20
2023-10-11T19:18:32.793Z,19.20
2023-10-11T19:21:03.113Z,19.20
2023-10-11T19:23:30.728Z,19.10
2023-10-11T19:25:58.295Z,19.10
2023-10-11T19:28:25.988Z,19.10
2023-10-11T19:30:53.627Z,19.10
2023-10-11T19:33:22.111Z,19.10
2023-10-11T19:35:48.773Z,19.00
2023-10-11T19:38:16.319Z,19.10
2023-10-11T19:40:43.897Z,19.30
2023-10-11T19:43:11.489Z,19.20
2023-10-11T19:45:39.117Z,19.20
2023-10-11T19:48:06.701Z,19.10
2023-10-11T19:50:35.083Z,19.00
2023-10-11T19:53:02.596Z,18.90
2023-10-11T19:55:30.877Z,18.90
2023-10-11T19:57:57.793Z,19.10
2023-10-11T20:00:25.439Z,19.20
2023-10-11T20:02:53.371Z,19.10
2023-10-11T20:05:20.743Z,19.00
2023-10-11T20:07:48.494Z,18.90
2023-10-11T20:10:16.627Z,18.70
2023-10-11T20:12:47.743Z,18.70
2023-10-11T20:15:18.327Z,18.60
2023-10-11T20:17:49.238Z,18.50
2023-10-11T20:20:17.545Z,18.40
2023-10-11T20:22:45.162Z,18.40
2023-10-11T20:25:12.891Z,18.30
2023-10-11T20:27:43.308Z,18.20
2023-10-11T20:30:10.919Z,18.20
2023-10-11T20:32:38.552Z,18.40
2023-10-11T20:35:06.931Z,18.30
2023-10-11T20:37:34.497Z,18.20
2023-10-11T20:40:17.237Z,18.20
2023-10-11T20:42:44.890Z,18.10
2023-10-11T20:45:12.438Z,18.00
2023-10-11T20:47:40.078Z,18.00
2023-10-11T20:50:07.636Z,17.90
2023-10-11T20:53:30.947Z,17.90
2023-10-11T20:55:58.500Z,18.10
2023-10-11T20:58:26.098Z,18.30
2023-10-11T21:00:53.754Z,18.10
2023-10-11T21:03:21.691Z,18.00
2023-10-11T21:05:48.878Z,18.00
2023-10-11T21:08:16.563Z,17.90
2023-10-11T21:10:44.917Z,17.70
2023-10-11T21:13:12.531Z,17.70
2023-10-11T21:15:41.046Z,17.60
2023-10-11T21:18:11.431Z,17.60
2023-10-11T21:20:43.934Z,17.60
2023-10-11T21:23:12.131Z,17.60
2023-10-11T21:25:39.708Z,17.50
2023-10-11T21:28:08.048Z,17.40
2023-10-11T21:30:35.699Z,17.40
2023-10-11T21:33:03.292Z,17.40
2023-10-11T21:35:30.841Z,17.40
2023-10-11T21:37:58.485Z,17.30
2023-10-11T21:40:26.059Z,17.30
2023-10-11T21:42:53.668Z,17.30
2023-10-11T21:45:21.280Z,17.30
2023-10-11T21:47:48.950Z,17.30
2023-10-11T21:50:16.492Z,17.30
2023-10-11T21:52:44.102Z,17.30
2023-10-11T21:55:15.225Z,17.40
2023-10-11T21:57:46.610Z,17.40
2023-10-11T22:00:14.365Z,17.40
2023-10-11T22:02:42.059Z,17.40
2023-10-11T22:05:09.572Z,17.40
2023-10-11T22:07:37.229Z,17.40
2023-10-11T22:10:05.637Z,17.40
2023-10-11T22:12:33.288Z,17.30
2023-10-11T22:15:00.863Z,17.30
2023-10-11T22:17:29.195Z,17.30
2023-10-11T22:19:56.732Z,17.30
2023-10-11T22:22:24.358Z,17.30
2023-10-11T22:24:51.976Z,17.20
2023-10-11T22:27:19.660Z,17.20
2023-10-11T22:29:47.216Z,17.20
2023-10-11T22:32:14.809Z,17.50
2023-10-11T22:34:42.582Z,17.40
2023-10-11T22:37:20.820Z,17.40
2023-10-11T22:39:37.622Z,17.30
2023-10-11T22:42:05.185Z,17.60
2023-10-11T22:44:32.788Z,17.50
2023-10-11T22:47:00.412Z,17.40
2023-10-11T22:49:28.756Z,17.30
2023-10-11T22:51:56.443Z,17.30
2023-10-11T22:54:24.025Z,17.30
2023-10-11T22:56:51.543Z,17.20
2023-10-11T22:59:19.188Z,17.20
2023-10-11T23:01:46.801Z,17.20
2023-10-11T23:04:14.432Z,17.20
2023-10-11T23:06:41.979Z,17.20
2023-10-11T23:09:09.532Z,17.20
2023-10-11T23:11:37.140Z,17.20
2023-10-11T23:14:05.509Z,17.20
2023-10-11T23:16:33.880Z,17.20
2023-10-11T23:19:01.485Z,17.20
2023-10-11T23:21:29.865Z,17.30
2023-10-11T23:23:57.458Z,17.30
2023-10-11T23:26:27.786Z,17.40
2023-10-11T23:28:55.359Z,17.40
2023-10-11T23:31:22.973Z,17.40
2023-10-11T23:33:51.778Z,17.50
2023-10-11T23:36:18.156Z,17.70
2023-10-11T23:38:48.273Z,17.70
2023-10-11T23:41:21.552Z,17.60
2023-10-11T23:43:49.077Z,17.60
2023-10-11T23:46:16.770Z,17.60
2023-10-11T23:48:45.075Z,17.50
2023-10-11T23:51:12.648Z,17.50
2023-10-11T23:53:45.845Z,17.50
2023-10-11T23:56:13.471Z,17.50
2023-10-11T23:58:41.046Z,17.40
